createdAt,value
2023-01-25T00:01:16.501Z,48.08
2023-01-25T00:04:20.625Z,48.08
2023-01-25T00:07:23.466Z,48.26
2023-01-25T00:10:27.830Z,48.16
2023-01-25T00:13:30.714Z,48.16
2023-01-25T00:16:33.817Z,48.02
2023-01-25T00:19:36.666Z,48.01
2023-01-25T00:22:39.702Z,48.09
2023-01-25T00:25:43.879Z,48.00
2023-01-25T00:28:50.244Z,48.09
2023-01-25T00:32:03.852Z,48.07
2023-01-25T00:35:13.158Z,48.03
2023-01-25T00:38:29.776Z,47.94
2023-01-25T00:41:34.428Z,47.95
2023-01-25T00:44:37.381Z,47.97
2023-01-25T00:47:40.455Z,48.05
2023-01-25T00:50:43.287Z,47.93
2023-01-25T00:53:46.402Z,48.12
2023-01-25T00:56:52.417Z,48.00
2023-01-25T00:59:55.378Z,47.96
2023-01-25T01:02:58.538Z,48.06
2023-01-25T01:06:03.758Z,48.07
2023-01-25T01:09:07.649Z,48.07
2023-01-25T01:12:12.031Z,48.04
2023-01-25T01:15:14.911Z,47.98
2023-01-25T01:18:17.762Z,47.97
2023-01-25T01:21:21.696Z,48.04
2023-01-25T01:24:24.720Z,48.02
2023-01-25T01:27:29.002Z,47.97
2023-01-25T01:30:31.806Z,47.95
2023-01-25T01:33:36.132Z,47.92
2023-01-25T01:36:39.165Z,47.92
2023-01-25T01:39:42.112Z,47.93
2023-01-25T01:43:00.660Z,48.06
2023-01-25T01:46:05.904Z,47.96
2023-01-25T01:49:17.478Z,48.11
2023-01-25T01:52:24.590Z,48.09
2023-01-25T01:55:29.130Z,47.97
2023-01-25T01:58:34.021Z,48.15
2023-01-25T02:01:37.224Z,48.21
2023-01-25T02:04:40.142Z,48.12
2023-01-25T02:07:52.046Z,48.24
2023-01-25T02:10:55.966Z,48.10
2023-01-25T02:14:01.600Z,48.11
2023-01-25T02:17:05.212Z,48.10
2023-01-25T02:20:15.029Z,48.20
2023-01-25T02:23:23.275Z,48.17
2023-01-25T02:26:27.844Z,48.25
2023-01-25T02:29:31.352Z,48.19
2023-01-25T02:32:35.011Z,48.31
2023-01-25T02:35:41.969Z,48.25
2023-01-25T02:38:49.379Z,48.22
2023-01-25T02:41:53.840Z,48.33
2023-01-25T02:44:57.014Z,48.28
2023-01-25T02:48:00.817Z,48.22
2023-01-25T02:51:04.329Z,48.21
2023-01-25T02:54:09.134Z,48.30
2023-01-25T02:57:13.430Z,48.14
2023-01-25T03:00:21.141Z,48.23
2023-01-25T03:03:23.950Z,48.15
2023-01-25T03:06:26.988Z,48.26
2023-01-25T03:09:30.355Z,48.17
2023-01-25T03:12:34.603Z,48.07
2023-01-25T03:15:37.386Z,48.09
2023-01-25T03:18:41.558Z,48.20
2023-01-25T03:21:44.359Z,48.15
2023-01-25T03:24:47.322Z,48.11
2023-01-25T03:27:51.742Z,48.18
2023-01-25T03:30:54.728Z,48.16
2023-01-25T03:33:57.639Z,48.16
2023-01-25T03:37:05.350Z,48.27
2023-01-25T03:40:11.647Z,48.13
2023-01-25T03:43:21.330Z,48.27
2023-01-25T03:46:26.676Z,48.13
2023-01-25T03:49:29.862Z,48.02
2023-01-25T03:52:38.528Z,48.08
2023-01-25T03:55:43.875Z,48.22
2023-01-25T03:58:48.266Z,48.05
2023-01-25T04:01:51.281Z,48.04
2023-01-25T04:04:55.213Z,48.12
2023-01-25T04:07:58.445Z,47.99
2023-01-25T04:11:11.137Z,48.01
2023-01-25T04:14:15.626Z,47.91
2023-01-25T04:17:31.797Z,47.72
2023-01-25T04:20:37.706Z,47.93
2023-01-25T04:23:40.665Z,47.91
2023-01-25T04:26:43.497Z,47.87
2023-01-25T04:29:47.799Z,47.82
2023-01-25T04:32:55.246Z,47.83
2023-01-25T04:36:06.149Z,48.00
2023-01-25T04:39:09.086Z,47.87
2023-01-25T04:42:13.368Z,47.96
2023-01-25T04:45:18.241Z,48.01
2023-01-25T04:48:21.479Z,48.05
2023-01-25T04:51:30.424Z,48.14
2023-01-25T04:54:33.917Z,48.14
2023-01-25T04:57:36.983Z,47.94
2023-01-25T05:00:41.301Z,48.12
2023-01-25T05:03:44.612Z,48.04
2023-01-25T05:06:57.141Z,48.04
2023-01-25T05:10:01.275Z,48.10
2023-01-25T05:13:04.142Z,48.10
2023-01-25T05:16:09.833Z,48.12
2023-01-25T05:19:13.747Z,48.09
2023-01-25T05:22:29.335Z,48.00
2023-01-25T05:25:50.700Z,48.18
2023-01-25T05:29:01.214Z,48.05
2023-01-25T05:32:20.880Z,48.17
2023-01-25T05:35:23.769Z,48.04
2023-01-25T05:38:31.370Z,48.08
2023-01-25T05:41:35.260Z,47.91
2023-01-25T05:44:39.004Z,47.99
2023-01-25T05:47:43.958Z,48.15
2023-01-25T05:50:47.096Z,48.03
2023-01-25T05:53:56.588Z,48.06
2023-01-25T05:57:00.613Z,47.94
2023-01-25T06:00:04.590Z,47.93
2023-01-25T06:03:17.782Z,47.93
2023-01-25T06:06:22.575Z,48.02
2023-01-25T06:09:26.372Z,47.88
2023-01-25T06:12:29.583Z,47.86
2023-01-25T06:15:34.525Z,47.95
2023-01-25T06:19:01.758Z,47.88
2023-01-25T06:22:30.518Z,47.94
2023-01-25T06:25:33.445Z,47.86
2023-01-25T06:28:37.549Z,47.88
2023-01-25T06:31:40.477Z,47.96
2023-01-25T06:34:46.378Z,48.08
2023-01-25T06:37:56.707Z,48.04
2023-01-25T06:41:02.934Z,47.89
2023-01-25T06:44:06.085Z,47.88
2023-01-25T06:47:10.036Z,48.11
2023-01-25T06:50:14.470Z,47.91
2023-01-25T06:53:17.458Z,47.87
2023-01-25T06:56:22.279Z,47.72
2023-01-25T06:59:25.246Z,47.71
2023-01-25T07:02:28.452Z,47.48
2023-01-25T07:05:32.758Z,47.45
2023-01-25T07:08:36.485Z,47.36
2023-01-25T07:11:39.364Z,47.54
2023-01-25T07:14:42.270Z,47.80
2023-01-25T07:17:45.230Z,47.93
2023-01-25T07:20:49.591Z,47.85
2023-01-25T07:23:52.929Z,48.02
2023-01-25T07:26:56.230Z,48.11
2023-01-25T07:29:59.138Z,47.88
2023-01-25T07:33:01.954Z,46.65
2023-01-25T07:36:08.823Z,46.07
2023-01-25T07:39:12.680Z,45.07
2023-01-25T07:42:15.762Z,44.91
2023-01-25T07:45:30.274Z,45.12
2023-01-25T07:48:33.395Z,45.45
2023-01-25T07:51:37.589Z,45.57
2023-01-25T07:54:40.437Z,45.60
2023-01-25T07:57:43.331Z,45.46
2023-01-25T08:00:46.387Z,45.47
2023-01-25T08:03:50.389Z,45.40
2023-01-25T08:06:54.697Z,45.43
2023-01-25T08:09:57.490Z,45.37
2023-01-25T08:13:00.584Z,45.49
2023-01-25T08:16:03.599Z,45.52
2023-01-25T08:19:06.657Z,45.68
2023-01-25T08:22:13.147Z,45.71
2023-01-25T08:25:16.038Z,45.88
2023-01-25T08:28:18.876Z,45.90
2023-01-25T08:31:23.517Z,46.16
2023-01-25T08:34:26.442Z,46.28
2023-01-25T08:37:30.630Z,46.28
2023-01-25T08:40:35.861Z,46.58
2023-01-25T08:43:41.463Z,46.74
2023-01-25T08:46:45.749Z,46.92
2023-01-25T08:49:48.848Z,46.95
2023-01-25T08:52:53.043Z,47.35
2023-01-25T08:55:56.034Z,47.59
2023-01-25T08:58:58.849Z,47.99
2023-01-25T09:02:01.727Z,47.60
2023-01-25T09:05:04.757Z,47.17
2023-01-25T09:08:11.389Z,47.07
2023-01-25T09:11:15.899Z,46.57
2023-01-25T09:14:18.820Z,46.21
2023-01-25T09:17:21.673Z,45.32
2023-01-25T09:20:25.341Z,44.89
2023-01-25T09:23:29.614Z,44.41
2023-01-25T09:26:33.537Z,43.50
2023-01-25T09:29:39.416Z,42.69
2023-01-25T09:32:42.904Z,42.08
2023-01-25T09:35:49.560Z,41.94
2023-01-25T09:38:54.424Z,40.33
2023-01-25T09:42:33.399Z,40.83
2023-01-25T09:45:37.221Z,41.11
2023-01-25T09:48:50.171Z,41.40
2023-01-25T09:52:24.734Z,41.82
2023-01-25T09:55:31.544Z,42.05
2023-01-25T09:58:37.495Z,41.98
2023-01-25T10:01:48.039Z,42.10
2023-01-25T10:04:54.343Z,42.14
2023-01-25T10:08:03.129Z,41.87
2023-01-25T10:11:17.918Z,42.05
2023-01-25T10:14:21.585Z,42.45
2023-01-25T10:17:31.606Z,42.62
2023-01-25T10:20:44.970Z,42.84
2023-01-25T10:24:05.024Z,42.90
2023-01-25T10:27:22.875Z,43.17
2023-01-25T10:30:30.367Z,43.32
2023-01-25T10:33:38.146Z,43.59
2023-01-25T10:36:42.592Z,43.66
2023-01-25T10:39:54.785Z,43.75
2023-01-25T10:43:03.470Z,43.96
2023-01-25T10:46:18.878Z,44.10
2023-01-25T10:49:26.390Z,44.23
2023-01-25T10:52:31.605Z,44.29
2023-01-25T10:55:34.598Z,44.38
2023-01-25T10:58:40.666Z,44.55
2023-01-25T11:01:43.956Z,44.58
2023-01-25T11:04:48.809Z,44.76
2023-01-25T11:07:51.748Z,44.76
2023-01-25T11:10:55.121Z,44.76
2023-01-25T11:13:59.442Z,44.97
2023-01-25T11:17:05.182Z,44.93
2023-01-25T11:20:18.856Z,45.00
2023-01-25T11:23:25.186Z,45.18
2023-01-25T11:26:29.354Z,45.07
2023-01-25T11:29:33.855Z,45.11
2023-01-25T11:32:39.281Z,45.09
2023-01-25T11:35:53.820Z,45.25
2023-01-25T11:39:09.543Z,45.19
2023-01-25T11:42:28.665Z,45.26
2023-01-25T11:46:01.827Z,45.40
2023-01-25T11:49:19.057Z,45.31
2023-01-25T11:52:30.197Z,45.39
2023-01-25T11:55:40.667Z,45.41
2023-01-25T11:59:02.089Z,45.45
2023-01-25T12:02:29.795Z,45.46
2023-01-25T12:05:44.292Z,45.50
2023-01-25T12:09:03.556Z,45.49
2023-01-25T12:12:17.786Z,45.57
2023-01-25T12:15:48.467Z,45.63
2023-01-25T12:19:10.742Z,45.54
2023-01-25T12:22:32.048Z,45.56
2023-01-25T12:25:47.167Z,45.64
2023-01-25T12:28:53.000Z,45.73
2023-01-25T12:32:01.697Z,45.72
2023-01-25T12:35:25.781Z,45.74
2023-01-25T12:38:36.353Z,45.93
2023-01-25T12:41:44.052Z,46.09
2023-01-25T12:44:50.584Z,45.96
2023-01-25T12:47:58.703Z,46.07
2023-01-25T12:51:02.962Z,46.06
2023-01-25T12:54:18.360Z,46.14
2023-01-25T12:57:29.480Z,46.17
2023-01-25T13:00:38.867Z,46.21
2023-01-25T13:04:02.062Z,46.22
2023-01-25T13:07:17.420Z,46.31
2023-01-25T13:10:25.841Z,46.89
2023-01-25T13:13:30.518Z,46.38
2023-01-25T13:16:39.716Z,46.47
2023-01-25T13:19:43.699Z,46.58
2023-01-25T13:22:59.496Z,46.50
2023-01-25T13:26:40.642Z,46.66
2023-01-25T13:29:49.540Z,46.80
2023-01-25T13:32:58.275Z,46.77
2023-01-25T13:36:46.616Z,46.81
2023-01-25T13:39:52.535Z,47.04
2023-01-25T13:43:01.303Z,46.92
2023-01-25T13:46:08.139Z,46.84
2023-01-25T13:49:23.223Z,46.77
2023-01-25T13:52:31.127Z,46.93
2023-01-25T13:55:40.297Z,46.96
2023-01-25T13:58:47.997Z,46.95
2023-01-25T14:01:52.244Z,46.94
2023-01-25T14:04:55.164Z,47.09
2023-01-25T14:07:59.579Z,47.01
2023-01-25T14:11:02.902Z,47.09
2023-01-25T14:14:19.238Z,47.05
2023-01-25T14:17:24.420Z,47.22
2023-01-25T14:20:27.431Z,47.12
2023-01-25T14:23:32.727Z,47.16
2023-01-25T14:26:38.056Z,47.22
2023-01-25T14:29:41.569Z,47.21
2023-01-25T14:32:44.581Z,47.17
2023-01-25T14:36:00.059Z,47.36
2023-01-25T14:39:18.059Z,47.36
2023-01-25T14:42:21.528Z,47.38
2023-01-25T14:45:27.001Z,47.53
2023-01-25T14:48:37.304Z,47.59
2023-01-25T14:51:44.913Z,47.61
2023-01-25T14:54:53.681Z,47.67
2023-01-25T14:58:00.810Z,47.49
2023-01-25T15:01:04.637Z,47.50
2023-01-25T15:04:12.858Z,47.43
2023-01-25T15:07:34.846Z,47.42
2023-01-25T15:10:50.906Z,47.30
2023-01-25T15:14:02.702Z,47.34
2023-01-25T15:17:05.607Z,47.62
2023-01-25T15:20:30.326Z,47.53
2023-01-25T15:23:33.164Z,47.51
2023-01-25T15:26:37.535Z,47.44
2023-01-25T15:29:41.169Z,47.52
2023-01-25T15:32:44.641Z,47.44
2023-01-25T15:35:47.902Z,47.43
2023-01-25T15:38:50.918Z,47.35
2023-01-25T15:41:55.126Z,47.29
2023-01-25T15:44:57.945Z,47.23
2023-01-25T15:48:00.772Z,47.33
2023-01-25T15:51:03.849Z,47.22
2023-01-25T15:54:07.417Z,47.34
2023-01-25T15:57:20.762Z,47.25
2023-01-25T16:00:23.994Z,47.12
2023-01-25T16:03:26.866Z,47.20
2023-01-25T16:06:42.024Z,47.30
2023-01-25T16:09:44.842Z,47.27
2023-01-25T16:12:49.471Z,47.29
2023-01-25T16:15:54.931Z,47.23
2023-01-25T16:18:57.773Z,47.24
2023-01-25T16:22:00.665Z,47.13
2023-01-25T16:25:04.510Z,47.11
2023-01-25T16:28:14.529Z,47.24
2023-01-25T16:31:31.347Z,47.12
2023-01-25T16:34:35.090Z,47.13
2023-01-25T16:37:37.901Z,47.13
2023-01-25T16:40:40.714Z,47.27
2023-01-25T16:43:47.113Z,47.19
2023-01-25T16:46:50.352Z,47.24
2023-01-25T16:49:53.496Z,47.21
2023-01-25T16:52:56.947Z,47.18
2023-01-25T16:56:00.520Z,47.22
2023-01-25T16:59:06.486Z,47.07
2023-01-25T17:02:12.262Z,47.18
2023-01-25T17:05:15.183Z,47.03
2023-01-25T17:08:18.030Z,47.10
2023-01-25T17:11:21.620Z,47.07
2023-01-25T17:14:25.824Z,47.03
2023-01-25T17:17:30.892Z,46.97
2023-01-25T17:20:33.742Z,47.06
2023-01-25T17:23:38.566Z,47.16
2023-01-25T17:26:41.802Z,47.15
2023-01-25T17:29:46.070Z,47.11
2023-01-25T17:32:48.982Z,47.04
2023-01-25T17:35:52.648Z,46.98
2023-01-25T17:38:55.486Z,47.00
2023-01-25T17:41:58.413Z,47.05
2023-01-25T17:45:02.695Z,47.05
2023-01-25T17:48:06.580Z,46.99
2023-01-25T17:51:09.661Z,46.95
2023-01-25T17:54:13.339Z,47.05
2023-01-25T17:57:18.015Z,47.04
2023-01-25T18:00:23.120Z,47.05
2023-01-25T18:03:26.069Z,47.13
2023-01-25T18:06:30.712Z,47.02
2023-01-25T18:09:35.776Z,47.05
2023-01-25T18:12:38.723Z,47.00
2023-01-25T18:15:42.974Z,46.98
2023-01-25T18:18:46.323Z,46.93
2023-01-25T18:21:49.197Z,47.08
2023-01-25T18:24:52.172Z,47.04
2023-01-25T18:27:54.995Z,47.03
2023-01-25T18:31:02.667Z,47.02
2023-01-25T18:34:05.727Z,47.15
2023-01-25T18:37:17.831Z,47.09
2023-01-25T18:40:21.139Z,47.06
2023-01-25T18:43:24.460Z,47.23
2023-01-25T18:46:28.862Z,47.17
2023-01-25T18:49:31.735Z,47.26
2023-01-25T18:52:36.408Z,47.50
2023-01-25T18:55:39.754Z,47.50
2023-01-25T18:58:43.653Z,47.48
2023-01-25T19:01:47.991Z,47.58
2023-01-25T19:04:50.913Z,47.50
2023-01-25T19:07:53.872Z,47.64
2023-01-25T19:11:01.259Z,47.60
2023-01-25T19:14:04.227Z,47.56
2023-01-25T19:17:08.820Z,47.54
2023-01-25T19:20:12.516Z,47.58
2023-01-25T19:23:15.328Z,47.66
2023-01-25T19:26:19.839Z,47.41
2023-01-25T19:29:23.223Z,47.54
2023-01-25T19:32:27.649Z,47.52
2023-01-25T19:35:30.487Z,47.38
2023-01-25T19:38:33.844Z,47.53
2023-01-25T19:41:38.737Z,47.53
2023-01-25T19:44:41.655Z,47.52
2023-01-25T19:47:45.893Z,47.59
2023-01-25T19:50:48.748Z,47.71
2023-01-25T19:53:55.303Z,47.59
2023-01-25T19:56:58.557Z,47.62
2023-01-25T20:00:01.333Z,47.74
2023-01-25T20:03:15.943Z,47.63
2023-01-25T20:06:20.876Z,47.80
2023-01-25T20:09:27.880Z,47.71
2023-01-25T20:12:31.093Z,47.82
2023-01-25T20:15:33.932Z,47.88
2023-01-25T20:18:38.470Z,48.02
2023-01-25T20:21:41.979Z,47.98
2023-01-25T20:24:45.148Z,47.98
2023-01-25T20:27:47.998Z,48.04
2023-01-25T20:30:51.046Z,48.09
2023-01-25T20:33:57.157Z,48.05
2023-01-25T20:37:00.561Z,48.00
2023-01-25T20:40:03.548Z,48.08
2023-01-25T20:43:06.382Z,48.09
2023-01-25T20:46:09.239Z,48.24
2023-01-25T20:49:16.519Z,48.31
2023-01-25T20:52:19.385Z,48.34
2023-01-25T20:55:22.291Z,48.40
2023-01-25T20:58:25.729Z,48.39
2023-01-25T21:01:30.757Z,48.38
2023-01-25T21:04:34.940Z,48.35
2023-01-25T21:07:37.776Z,48.37
2023-01-25T21:10:40.690Z,48.66
2023-01-25T21:13:43.640Z,48.82
2023-01-25T21:16:46.513Z,48.52
2023-01-25T21:19:50.731Z,48.34
2023-01-25T21:22:53.525Z,48.38
2023-01-25T21:25:56.417Z,48.32
2023-01-25T21:29:01.003Z,48.19
2023-01-25T21:32:04.431Z,48.15
2023-01-25T21:35:10.238Z,48.13
2023-01-25T21:38:13.478Z,48.27
2023-01-25T21:41:20.263Z,48.18
2023-01-25T21:44:40.805Z,48.20
2023-01-25T21:47:43.588Z,48.39
2023-01-25T21:51:05.411Z,48.32
2023-01-25T21:54:08.250Z,48.23
2023-01-25T21:57:11.736Z,48.15
2023-01-25T22:00:16.971Z,48.29
2023-01-25T22:03:19.839Z,48.19
2023-01-25T22:06:24.093Z,48.22
2023-01-25T22:09:27.363Z,48.17
2023-01-25T22:12:30.230Z,48.27
2023-01-25T22:15:33.792Z,48.40
2023-01-25T22:18:38.651Z,48.46
2023-01-25T22:21:42.995Z,48.48
2023-01-25T22:24:45.871Z,48.58
2023-01-25T22:27:56.308Z,48.48
2023-01-25T22:30:59.203Z,48.27
2023-01-25T22:34:02.090Z,48.26
2023-01-25T22:37:06.314Z,48.23
2023-01-25T22:40:10.751Z,48.65
2023-01-25T22:43:13.875Z,49.03
2023-01-25T22:46:18.968Z,48.82
2023-01-25T22:49:21.782Z,48.58
2023-01-25T22:52:26.349Z,48.44
2023-01-25T22:55:30.905Z,48.76
2023-01-25T22:58:35.411Z,48.67
2023-01-25T23:01:38.294Z,48.62
2023-01-25T23:04:41.284Z,48.23
2023-01-25T23:07:45.571Z,48.15
2023-01-25T23:10:48.442Z,48.05
2023-01-25T23:14:06.943Z,48.24
2023-01-25T23:17:29.441Z,48.31
2023-01-25T23:20:32.301Z,48.30
2023-01-25T23:23:36.578Z,48.27
2023-01-25T23:26:40.879Z,48.28
2023-01-25T23:29:44.015Z,48.22
2023-01-25T23:32:49.149Z,48.41
2023-01-25T23:35:52.087Z,48.48
2023-01-25T23:38:57.162Z,48.40
2023-01-25T23:42:00.106Z,48.56
2023-01-25T23:45:03.041Z,48.49
2023-01-25T23:48:06.078Z,48.63
2023-01-25T23:51:10.938Z,48.54
2023-01-25T23:54:15.297Z,48.56
2023-01-25T23:57:18.313Z,48.59
